< < Back
Terminal Aerodrome Forecast


Current Version              Previous Versions:   1  2  3  4  5  6  7  8  9  

Terminal Aerodrome Forecast

996
FTUS42 KGSP 011727
TAFGSP
TAF
KGSP 011727Z 0118/0218 25004KT P6SM SCT050
     FM012200 20005KT P6SM SCT060=

Latest METAR

168
SAUS70 KWBC 012000 RRP
MTRGSP
METAR KGSP 011953Z 13006KT 10SM BKN060 33/18 A3008 RMK AO2 SLP172
T03330178


USA.gov is the U.S. government's official web portal to all federal, state and local government web resources and services.